createdAt,value
2022-10-01T00:02:10.055Z,8.88
2022-10-01T00:04:39.525Z,8.27
2022-10-01T00:07:10.698Z,8.20
2022-10-01T00:09:38.472Z,10.52
2022-10-01T00:12:06.474Z,9.30
2022-10-01T00:14:34.255Z,9.90
2022-10-01T00:17:02.072Z,9.45
2022-10-01T00:19:31.467Z,11.40
2022-10-01T00:21:59.230Z,10.05
2022-10-01T00:24:27.087Z,10.70
2022-10-01T00:26:54.810Z,11.13
2022-10-01T00:29:22.558Z,11.68
2022-10-01T00:31:50.441Z,11.63
2022-10-01T00:34:18.255Z,11.20
2022-10-01T00:36:47.806Z,12.05
2022-10-01T00:39:15.729Z,12.38
2022-10-01T00:41:43.909Z,12.10
2022-10-01T00:44:35.787Z,13.52
2022-10-01T00:47:10.367Z,12.02
2022-10-01T00:49:40.849Z,13.52
2022-10-01T00:52:14.164Z,13.13
2022-10-01T00:54:45.562Z,13.03
2022-10-01T00:57:17.064Z,14.25
2022-10-01T00:59:45.608Z,15.05
2022-10-01T01:02:13.744Z,16.42
2022-10-01T01:04:42.536Z,15.68
2022-10-01T01:07:12.987Z,15.15
2022-10-01T01:09:44.338Z,17.30
2022-10-01T01:12:21.000Z,16.25
2022-10-01T01:14:58.147Z,17.60
2022-10-01T01:17:33.122Z,16.85
2022-10-01T01:20:23.759Z,16.42
2022-10-01T01:23:02.293Z,16.67
2022-10-01T01:25:36.850Z,16.63
2022-10-01T01:28:18.649Z,16.85
2022-10-01T01:30:50.932Z,16.92
2022-10-01T01:33:22.025Z,16.25
2022-10-01T01:35:53.139Z,16.52
2022-10-01T01:38:27.912Z,17.77
2022-10-01T01:40:58.646Z,16.42
2022-10-01T01:43:31.246Z,17.55
2022-10-01T01:46:01.167Z,16.92
2022-10-01T01:48:30.636Z,16.13
2022-10-01T01:51:02.842Z,16.00
2022-10-01T01:53:32.133Z,16.73
2022-10-01T01:56:00.663Z,16.83
2022-10-01T01:58:31.416Z,16.13
2022-10-01T02:00:59.170Z,16.83
2022-10-01T02:03:29.168Z,17.20
2022-10-01T02:06:14.283Z,17.10
2022-10-01T02:08:50.432Z,15.85
2022-10-01T02:11:25.053Z,15.10
2022-10-01T02:14:04.939Z,14.88
2022-10-01T02:16:43.053Z,14.70
2022-10-01T02:19:21.406Z,15.73
2022-10-01T02:21:56.335Z,14.67
2022-10-01T02:24:32.091Z,14.77
2022-10-01T02:27:03.783Z,15.10
2022-10-01T02:29:35.058Z,15.13
2022-10-01T02:32:03.567Z,14.00
2022-10-01T02:34:32.609Z,13.82
2022-10-01T02:37:05.195Z,14.15
2022-10-01T02:39:34.994Z,14.32
2022-10-01T02:42:04.510Z,14.15
2022-10-01T02:44:38.458Z,15.07
2022-10-01T02:47:10.642Z,14.30
2022-10-01T02:49:41.436Z,14.27
2022-10-01T02:52:16.292Z,14.55
2022-10-01T02:54:50.317Z,14.55
2022-10-01T02:57:24.731Z,14.52
2022-10-01T02:59:56.402Z,12.68
2022-10-01T03:02:26.724Z,14.00
2022-10-01T03:04:54.852Z,13.13
2022-10-01T03:07:22.649Z,14.05
2022-10-01T03:09:50.952Z,13.95
2022-10-01T03:12:19.227Z,12.70
2022-10-01T03:14:47.577Z,12.57
2022-10-01T03:17:17.710Z,13.65
2022-10-01T03:19:45.609Z,13.95
2022-10-01T03:22:15.487Z,14.38
2022-10-01T03:24:43.217Z,12.95
2022-10-01T03:27:11.599Z,12.00
2022-10-01T03:29:39.350Z,12.50
2022-10-01T03:32:07.131Z,11.98
2022-10-01T03:34:36.474Z,10.95
2022-10-01T03:37:04.316Z,11.18
2022-10-01T03:39:32.277Z,11.65
2022-10-01T03:42:00.052Z,12.07
2022-10-01T03:44:28.353Z,11.83
2022-10-01T03:46:56.314Z,11.40
2022-10-01T03:49:24.278Z,11.73
2022-10-01T03:51:54.214Z,12.27
2022-10-01T03:54:22.474Z,11.95
2022-10-01T03:56:50.583Z,11.45
2022-10-01T03:59:20.135Z,11.48
2022-10-01T04:01:47.978Z,11.27
2022-10-01T04:04:16.891Z,11.50
2022-10-01T04:06:44.723Z,11.60
2022-10-01T04:09:13.798Z,11.32
2022-10-01T04:11:41.545Z,11.20
2022-10-01T04:14:09.659Z,11.50
2022-10-01T04:16:37.449Z,11.18
2022-10-01T04:19:05.902Z,10.60
2022-10-01T04:21:34.677Z,11.07
2022-10-01T04:24:05.060Z,11.05
2022-10-01T04:26:34.137Z,11.13
2022-10-01T04:29:01.890Z,11.05
2022-10-01T04:31:34.930Z,10.98
2022-10-01T04:34:03.483Z,10.57
2022-10-01T04:36:31.239Z,10.37
2022-10-01T04:39:02.014Z,9.90
2022-10-01T04:41:31.792Z,9.67
2022-10-01T04:44:01.616Z,9.80
2022-10-01T04:46:30.002Z,9.60
2022-10-01T04:48:57.928Z,9.82
2022-10-01T04:51:26.298Z,10.25
2022-10-01T04:53:54.315Z,10.05
2022-10-01T04:56:22.374Z,10.00
2022-10-01T04:58:50.133Z,9.88
2022-10-01T05:01:19.288Z,9.43
2022-10-01T05:03:47.526Z,9.10
2022-10-01T05:06:15.249Z,9.13
2022-10-01T05:08:42.977Z,9.82
2022-10-01T05:11:10.738Z,8.90
2022-10-01T05:13:38.504Z,9.25
2022-10-01T05:16:06.566Z,8.90
2022-10-01T05:18:36.033Z,8.82
2022-10-01T05:21:06.443Z,8.50
2022-10-01T05:23:34.727Z,8.20
2022-10-01T05:26:04.214Z,8.30
2022-10-01T05:28:32.314Z,8.38
2022-10-01T05:31:01.335Z,8.40
2022-10-01T05:33:30.294Z,8.10
2022-10-01T05:35:59.535Z,8.30
2022-10-01T05:38:27.277Z,9.00
2022-10-01T05:40:55.118Z,7.60
2022-10-01T05:43:22.944Z,8.23
2022-10-01T05:45:51.182Z,7.63
2022-10-01T05:48:19.213Z,8.65
2022-10-01T05:50:47.056Z,8.30
2022-10-01T05:53:16.371Z,8.50
2022-10-01T05:55:44.190Z,8.88
2022-10-01T05:58:13.843Z,9.00
2022-10-01T06:00:43.386Z,8.63
2022-10-01T06:03:13.496Z,9.80
2022-10-01T06:05:41.479Z,9.20
2022-10-01T06:08:10.560Z,9.48
2022-10-01T06:10:39.851Z,9.57
2022-10-01T06:13:08.404Z,10.07
2022-10-01T06:15:38.539Z,11.20
2022-10-01T06:18:07.805Z,9.57
2022-10-01T06:20:35.906Z,10.10
2022-10-01T06:23:05.682Z,11.30
2022-10-01T06:25:35.330Z,11.23
2022-10-01T06:28:05.881Z,10.77
2022-10-01T06:30:36.779Z,10.18
2022-10-01T06:33:06.435Z,10.20
2022-10-01T06:35:35.422Z,9.73
2022-10-01T06:38:03.582Z,9.50
2022-10-01T06:40:31.846Z,9.63
2022-10-01T06:42:59.901Z,9.30
2022-10-01T06:45:30.760Z,9.02
2022-10-01T06:48:02.433Z,9.25
2022-10-01T06:50:30.846Z,8.90
2022-10-01T06:53:00.302Z,9.20
2022-10-01T06:55:31.016Z,9.10
2022-10-01T06:58:00.286Z,8.70
2022-10-01T07:00:30.723Z,9.10
2022-10-01T07:02:58.911Z,8.50
2022-10-01T07:05:27.689Z,8.52
2022-10-01T07:07:55.419Z,8.10
2022-10-01T07:10:24.366Z,7.97
2022-10-01T07:12:52.706Z,7.93
2022-10-01T07:15:22.607Z,7.88
2022-10-01T07:17:52.619Z,10.38
2022-10-01T07:20:21.782Z,7.80
2022-10-01T07:22:49.921Z,7.40
2022-10-01T07:25:18.025Z,6.88
2022-10-01T07:27:45.810Z,6.80
2022-10-01T07:30:13.603Z,7.00
2022-10-01T07:32:45.727Z,6.20
2022-10-01T07:35:15.042Z,6.07
2022-10-01T07:37:42.807Z,5.83
2022-10-01T07:40:11.063Z,5.67
2022-10-01T07:42:39.239Z,5.03
2022-10-01T07:45:08.314Z,4.90
2022-10-01T07:47:36.073Z,4.38
2022-10-01T07:50:04.499Z,4.80
2022-10-01T07:52:33.712Z,4.20
2022-10-01T07:55:01.536Z,4.20
2022-10-01T07:57:29.473Z,3.45
2022-10-01T07:59:57.215Z,3.70
2022-10-01T08:02:24.986Z,3.40
2022-10-01T08:05:10.148Z,3.40
2022-10-01T08:07:39.271Z,3.00
2022-10-01T08:10:07.495Z,3.30
2022-10-01T08:12:35.628Z,2.95
2022-10-01T08:15:03.626Z,3.05
2022-10-01T08:17:31.474Z,2.60
2022-10-01T08:19:59.198Z,3.00
2022-10-01T08:22:26.996Z,2.50
2022-10-01T08:24:56.066Z,2.30
2022-10-01T08:27:25.191Z,2.53
2022-10-01T08:29:53.387Z,2.60
2022-10-01T08:32:21.715Z,2.50
2022-10-01T08:34:54.498Z,2.35
2022-10-01T08:37:28.246Z,2.25
2022-10-01T08:39:57.891Z,1.92
2022-10-01T08:42:40.198Z,2.05
2022-10-01T08:45:14.984Z,2.30
2022-10-01T08:47:49.362Z,2.13
2022-10-01T08:50:32.335Z,2.05
2022-10-01T08:53:04.395Z,1.93
2022-10-01T08:55:37.349Z,2.28
2022-10-01T08:58:08.037Z,2.10
2022-10-01T09:00:39.980Z,1.90
2022-10-01T09:03:13.118Z,2.03
2022-10-01T09:05:51.198Z,1.90
2022-10-01T09:08:25.013Z,1.80
2022-10-01T09:11:00.559Z,1.73
2022-10-01T09:13:44.010Z,2.00
2022-10-01T09:16:19.522Z,1.67
2022-10-01T09:19:01.954Z,1.70
2022-10-01T09:21:44.633Z,1.63
2022-10-01T09:24:16.073Z,1.85
2022-10-01T09:26:49.366Z,1.77
2022-10-01T09:29:22.972Z,1.58
2022-10-01T09:31:53.921Z,1.92
2022-10-01T09:34:29.990Z,1.63
2022-10-01T09:37:06.321Z,1.60
2022-10-01T09:39:40.231Z,1.60
2022-10-01T09:42:09.605Z,1.70
2022-10-01T09:44:38.002Z,2.65
2022-10-01T09:47:17.481Z,2.60
2022-10-01T09:49:46.061Z,2.03
2022-10-01T09:52:18.321Z,1.80
2022-10-01T09:54:50.168Z,1.50
2022-10-01T09:57:26.438Z,1.60
2022-10-01T10:00:01.442Z,1.75
2022-10-01T10:02:33.451Z,1.50
2022-10-01T10:05:02.253Z,1.43
2022-10-01T10:07:32.337Z,1.60
2022-10-01T10:10:09.696Z,1.60
2022-10-01T10:12:39.084Z,1.50
2022-10-01T10:15:09.841Z,1.70
2022-10-01T10:17:41.782Z,1.73
2022-10-01T10:20:13.871Z,1.70
2022-10-01T10:22:41.671Z,1.70
2022-10-01T10:25:17.356Z,1.80
2022-10-01T10:27:55.308Z,2.03
2022-10-01T10:30:26.186Z,1.88
2022-10-01T10:33:02.301Z,1.80
2022-10-01T10:35:31.741Z,1.60
2022-10-01T10:38:01.363Z,2.10
2022-10-01T10:40:35.655Z,2.10
2022-10-01T10:43:04.849Z,1.98
2022-10-01T10:45:37.247Z,1.97
2022-10-01T10:48:07.735Z,2.00
2022-10-01T10:50:38.817Z,2.17
2022-10-01T10:53:21.944Z,2.20
2022-10-01T10:55:58.237Z,2.17
2022-10-01T10:58:29.802Z,2.38
2022-10-01T11:01:00.167Z,2.33
2022-10-01T11:03:31.655Z,2.22
2022-10-01T11:06:05.499Z,2.35
2022-10-01T11:08:35.640Z,2.40
2022-10-01T11:11:14.974Z,2.55
2022-10-01T11:14:03.178Z,2.85
2022-10-01T11:16:49.815Z,2.70
2022-10-01T11:19:37.742Z,2.90
2022-10-01T11:22:24.263Z,2.65
2022-10-01T11:25:01.916Z,2.72
2022-10-01T11:27:42.526Z,2.90
2022-10-01T11:30:19.405Z,2.90
2022-10-01T11:33:03.529Z,2.70
2022-10-01T11:35:49.511Z,2.70
2022-10-01T11:38:48.456Z,3.00
2022-10-01T11:41:34.775Z,3.00
2022-10-01T11:44:08.510Z,3.00
2022-10-01T11:46:54.347Z,3.03
2022-10-01T11:49:29.921Z,2.90
2022-10-01T11:52:09.096Z,2.60
2022-10-01T11:54:44.179Z,3.20
2022-10-01T11:57:33.035Z,2.78
2022-10-01T12:00:06.526Z,2.83
2022-10-01T12:02:50.786Z,3.03
2022-10-01T12:05:21.135Z,2.67
2022-10-01T12:07:55.065Z,3.00
2022-10-01T12:10:37.446Z,2.88
2022-10-01T12:13:11.628Z,3.00
2022-10-01T12:15:46.480Z,3.10
2022-10-01T12:18:21.543Z,3.22
2022-10-01T12:20:52.110Z,2.90
2022-10-01T12:23:22.230Z,3.27
2022-10-01T12:25:58.539Z,3.13
2022-10-01T12:28:32.990Z,2.83
2022-10-01T12:31:07.811Z,3.50
2022-10-01T12:34:03.007Z,3.15
2022-10-01T12:36:44.306Z,3.13
2022-10-01T12:39:29.043Z,3.10
2022-10-01T12:42:06.715Z,2.95
2022-10-01T12:44:51.476Z,2.60
2022-10-01T12:47:38.665Z,2.95
2022-10-01T12:50:21.928Z,2.80
2022-10-01T12:52:58.410Z,2.97
2022-10-01T12:55:48.500Z,2.90
2022-10-01T12:58:33.681Z,2.70
2022-10-01T13:01:11.409Z,2.75
2022-10-01T13:04:06.227Z,2.63
2022-10-01T13:06:47.308Z,2.60
2022-10-01T13:09:21.663Z,2.70
2022-10-01T13:12:03.065Z,2.33
2022-10-01T13:14:33.173Z,2.30
2022-10-01T13:17:05.959Z,2.30
2022-10-01T13:19:41.400Z,2.20
2022-10-01T13:22:17.195Z,1.95
2022-10-01T13:24:49.572Z,1.80
2022-10-01T13:27:24.767Z,1.80
2022-10-01T13:30:00.254Z,1.60
2022-10-01T13:32:31.255Z,1.60
2022-10-01T13:35:01.061Z,1.70
2022-10-01T13:37:41.190Z,1.38
2022-10-01T13:40:23.918Z,1.55
2022-10-01T13:42:53.107Z,1.25
2022-10-01T13:45:27.533Z,1.65
2022-10-01T13:48:07.713Z,1.50
2022-10-01T13:50:37.059Z,1.40
2022-10-01T13:53:16.419Z,1.70
2022-10-01T13:55:46.560Z,1.40
2022-10-01T13:58:31.614Z,1.60
2022-10-01T14:01:01.127Z,1.30
2022-10-01T14:03:40.278Z,1.30
2022-10-01T14:06:15.859Z,1.38
2022-10-01T14:08:48.502Z,1.20
2022-10-01T14:11:40.027Z,1.30
2022-10-01T14:14:33.495Z,1.50
2022-10-01T14:17:01.915Z,1.40
2022-10-01T14:19:29.907Z,1.27
2022-10-01T14:22:14.563Z,1.33
2022-10-01T14:25:04.044Z,1.42
2022-10-01T14:27:37.926Z,1.50
2022-10-01T14:30:08.284Z,1.52
2022-10-01T14:33:03.832Z,1.50
2022-10-01T14:35:34.758Z,1.40
2022-10-01T14:38:05.331Z,1.60
2022-10-01T14:40:38.982Z,1.60
2022-10-01T14:43:17.584Z,1.40
2022-10-01T14:45:53.343Z,1.42
2022-10-01T14:48:21.102Z,1.40
2022-10-01T14:50:51.987Z,1.30
2022-10-01T14:53:24.442Z,1.55
2022-10-01T14:55:57.114Z,1.60
2022-10-01T14:58:28.935Z,1.40
2022-10-01T15:00:57.692Z,1.50
2022-10-01T15:03:25.946Z,1.50
2022-10-01T15:06:03.980Z,1.50
2022-10-01T15:08:40.242Z,1.52
2022-10-01T15:11:12.751Z,1.88
2022-10-01T15:13:43.285Z,1.77
2022-10-01T15:16:13.599Z,1.83
2022-10-01T15:18:46.404Z,1.52
2022-10-01T15:21:20.201Z,1.98
2022-10-01T15:23:49.756Z,1.73
2022-10-01T15:26:25.156Z,1.63
2022-10-01T15:29:02.774Z,1.60
2022-10-01T15:31:31.021Z,1.80
2022-10-01T15:34:01.883Z,1.70
2022-10-01T15:36:30.346Z,1.88
2022-10-01T15:38:58.907Z,1.80
2022-10-01T15:41:32.834Z,1.75
2022-10-01T15:44:04.816Z,1.60
2022-10-01T15:46:35.324Z,1.50
2022-10-01T15:49:17.891Z,1.60
2022-10-01T15:52:11.092Z,2.05
2022-10-01T15:54:41.218Z,1.70
2022-10-01T15:57:16.965Z,1.50
2022-10-01T15:59:45.491Z,1.85
2022-10-01T16:02:21.688Z,1.80
2022-10-01T16:04:56.054Z,1.80
2022-10-01T16:07:29.335Z,1.67
2022-10-01T16:09:59.472Z,1.60
2022-10-01T16:12:29.609Z,2.33
2022-10-01T16:14:59.542Z,1.70
2022-10-01T16:17:30.571Z,2.17
2022-10-01T16:20:00.423Z,2.22
2022-10-01T16:22:31.651Z,1.60
2022-10-01T16:25:00.885Z,1.67
2022-10-01T16:27:32.876Z,3.13
2022-10-01T16:30:05.692Z,1.60
2022-10-01T16:32:34.021Z,1.85
2022-10-01T16:35:17.761Z,2.00
2022-10-01T16:37:47.454Z,1.38
2022-10-01T16:40:16.474Z,1.38
2022-10-01T16:42:46.532Z,1.70
2022-10-01T16:45:16.871Z,1.42
2022-10-01T16:47:44.995Z,1.40
2022-10-01T16:50:16.425Z,1.50
2022-10-01T16:52:44.213Z,1.70
2022-10-01T16:55:19.062Z,1.60
2022-10-01T16:57:48.255Z,1.40
2022-10-01T17:00:16.894Z,1.55
2022-10-01T17:02:46.996Z,1.60
2022-10-01T17:05:19.635Z,1.60
2022-10-01T17:07:47.683Z,1.50
2022-10-01T17:10:16.325Z,1.40
2022-10-01T17:12:45.283Z,1.27
2022-10-01T17:15:17.135Z,1.38
2022-10-01T17:17:45.083Z,1.60
2022-10-01T17:20:13.800Z,1.33
2022-10-01T17:22:42.793Z,1.50
2022-10-01T17:25:16.278Z,1.42
2022-10-01T17:27:44.161Z,1.30
2022-10-01T17:30:13.961Z,1.30
2022-10-01T17:32:42.897Z,1.20
2022-10-01T17:35:11.268Z,1.40
2022-10-01T17:37:39.075Z,1.38
2022-10-01T17:40:08.198Z,1.33
2022-10-01T17:42:36.539Z,1.15
2022-10-01T17:45:07.038Z,1.98
2022-10-01T17:47:36.355Z,1.52
2022-10-01T17:50:04.720Z,1.30
2022-10-01T17:52:33.022Z,1.30
2022-10-01T17:55:00.800Z,1.30
2022-10-01T17:57:28.651Z,1.30
2022-10-01T17:59:56.401Z,1.88
2022-10-01T18:02:40.848Z,1.58
2022-10-01T18:05:14.365Z,1.20
2022-10-01T18:07:42.617Z,1.88
2022-10-01T18:10:13.069Z,1.40
2022-10-01T18:12:41.054Z,1.48
2022-10-01T18:15:10.269Z,1.70
2022-10-01T18:17:43.384Z,1.40
2022-10-01T18:20:20.392Z,1.30
2022-10-01T18:22:48.320Z,1.30
2022-10-01T18:25:16.887Z,1.40
2022-10-01T18:27:45.959Z,1.38
2022-10-01T18:30:13.919Z,1.40
2022-10-01T18:32:44.896Z,1.30
2022-10-01T18:35:22.911Z,1.20
2022-10-01T18:37:53.094Z,1.20
2022-10-01T18:40:24.248Z,1.48
2022-10-01T18:42:58.802Z,1.33
2022-10-01T18:45:41.486Z,1.30
2022-10-01T18:48:38.707Z,1.20
2022-10-01T18:51:19.528Z,1.63
2022-10-01T18:54:13.072Z,1.52
2022-10-01T18:56:48.059Z,1.20
2022-10-01T18:59:51.259Z,1.30
2022-10-01T19:02:34.449Z,1.27
2022-10-01T19:05:39.330Z,1.30
2022-10-01T19:08:25.051Z,1.40
2022-10-01T19:11:04.733Z,1.10
2022-10-01T19:13:42.774Z,1.40
2022-10-01T19:16:22.833Z,1.40
2022-10-01T19:19:02.802Z,1.10
2022-10-01T19:21:39.067Z,6.53
2022-10-01T19:24:39.369Z,1.45
2022-10-01T19:27:19.827Z,1.17
2022-10-01T19:29:59.031Z,1.17
2022-10-01T19:32:31.123Z,1.20
2022-10-01T19:35:04.163Z,1.20
2022-10-01T19:37:38.745Z,1.10
2022-10-01T19:40:16.006Z,1.00
2022-10-01T19:42:49.174Z,1.13
2022-10-01T19:45:24.094Z,1.02
2022-10-01T19:47:57.409Z,1.20
2022-10-01T19:50:30.007Z,1.10
2022-10-01T19:52:59.888Z,1.10
2022-10-01T19:55:35.066Z,1.20
2022-10-01T19:58:17.341Z,1.10
2022-10-01T20:00:47.206Z,1.17
2022-10-01T20:03:23.444Z,1.15
2022-10-01T20:05:54.247Z,1.30
2022-10-01T20:08:33.923Z,1.10
2022-10-01T20:11:13.087Z,0.93
2022-10-01T20:13:57.430Z,1.00
2022-10-01T20:16:31.040Z,1.23
2022-10-01T20:19:10.943Z,1.10
2022-10-01T20:21:47.454Z,1.10
2022-10-01T20:24:40.120Z,1.10
2022-10-01T20:27:19.946Z,1.02
2022-10-01T20:29:57.301Z,1.10
2022-10-01T20:32:30.777Z,1.02
2022-10-01T20:35:10.594Z,1.20
2022-10-01T20:37:52.659Z,1.10
2022-10-01T20:40:24.963Z,1.20
2022-10-01T20:42:57.578Z,1.10
2022-10-01T20:45:29.763Z,1.17
2022-10-01T20:47:59.984Z,1.20
2022-10-01T20:50:32.301Z,1.17
2022-10-01T20:53:17.538Z,1.00
2022-10-01T20:55:49.940Z,1.30
2022-10-01T20:58:23.399Z,1.27
2022-10-01T21:00:59.297Z,1.40
2022-10-01T21:03:31.702Z,1.10
2022-10-01T21:06:04.686Z,1.10
2022-10-01T21:08:39.371Z,1.00
2022-10-01T21:11:14.348Z,1.00
2022-10-01T21:13:49.319Z,1.10
2022-10-01T21:16:38.276Z,1.10
2022-10-01T21:19:18.418Z,1.00
2022-10-01T21:21:57.050Z,1.10
2022-10-01T21:24:37.595Z,0.80
2022-10-01T21:27:21.608Z,1.38
2022-10-01T21:30:05.616Z,1.20
2022-10-01T21:32:53.622Z,1.05
2022-10-01T21:35:29.853Z,1.00
2022-10-01T21:38:04.005Z,1.00
2022-10-01T21:40:42.430Z,0.90
2022-10-01T21:43:19.587Z,1.20
2022-10-01T21:45:54.461Z,0.98
2022-10-01T21:48:36.832Z,1.00
2022-10-01T21:51:15.579Z,1.10
2022-10-01T21:54:07.796Z,0.90
2022-10-01T21:56:56.264Z,0.90
2022-10-01T21:59:44.711Z,1.10
2022-10-01T22:02:30.322Z,1.10
2022-10-01T22:05:06.199Z,1.10
2022-10-01T22:07:38.457Z,1.10
2022-10-01T22:10:14.343Z,1.20
2022-10-01T22:12:46.843Z,1.10
2022-10-01T22:15:23.436Z,1.20
2022-10-01T22:17:53.619Z,1.08
2022-10-01T22:20:27.718Z,1.10
2022-10-01T22:22:59.427Z,1.20
2022-10-01T22:25:29.659Z,1.10
2022-10-01T22:28:02.839Z,1.08
2022-10-01T22:30:35.428Z,1.08
2022-10-01T22:33:09.924Z,1.20
2022-10-01T22:35:44.042Z,1.00
2022-10-01T22:38:18.142Z,1.08
2022-10-01T22:40:47.736Z,1.20
2022-10-01T22:43:16.066Z,1.00
2022-10-01T22:45:57.480Z,1.10
2022-10-01T22:48:42.743Z,1.13
2022-10-01T22:51:30.310Z,1.20
2022-10-01T22:54:13.616Z,1.00
2022-10-01T22:56:50.127Z,1.20
2022-10-01T22:59:26.458Z,1.20
2022-10-01T23:02:01.784Z,1.30
2022-10-01T23:04:49.832Z,1.20
2022-10-01T23:07:26.466Z,1.17
2022-10-01T23:10:01.395Z,1.17
2022-10-01T23:12:38.953Z,1.13
2022-10-01T23:15:18.668Z,1.30
2022-10-01T23:17:54.904Z,1.30
2022-10-01T23:20:30.803Z,1.20
2022-10-01T23:23:21.162Z,1.10
2022-10-01T23:26:14.394Z,1.30
2022-10-01T23:28:54.916Z,1.13
2022-10-01T23:31:28.737Z,1.20
2022-10-01T23:34:10.487Z,1.20
2022-10-01T23:36:47.949Z,1.38
2022-10-01T23:39:41.239Z,1.30
2022-10-01T23:42:20.764Z,1.10
2022-10-01T23:45:03.122Z,1.30
2022-10-01T23:47:37.215Z,1.33
2022-10-01T23:50:08.711Z,1.10
2022-10-01T23:52:43.312Z,1.30
2022-10-01T23:55:36.727Z,1.42
2022-10-01T23:58:07.080Z,1.40
